createdAt,value
2023-04-03T00:00:29.306Z,1.88
2023-04-03T00:05:31.584Z,1.92
2023-04-03T00:10:33.792Z,1.80
2023-04-03T00:15:37.059Z,1.70
2023-04-03T00:20:39.490Z,3.42
2023-04-03T00:25:42.098Z,3.28
2023-04-03T00:30:44.204Z,2.83
2023-04-03T00:35:46.302Z,2.30
2023-04-03T00:40:50.434Z,2.40
2023-04-03T00:45:54.661Z,2.25
2023-04-03T00:50:57.689Z,2.30
2023-04-03T00:56:01.077Z,2.08
2023-04-03T01:01:09.253Z,1.90
2023-04-03T01:06:11.618Z,2.10
2023-04-03T01:11:14.158Z,1.90
2023-04-03T01:16:16.736Z,1.83
2023-04-03T01:21:28.585Z,1.77
2023-04-03T01:26:31.084Z,1.50
2023-04-03T01:31:47.003Z,1.85
2023-04-03T01:36:49.450Z,2.00
2023-04-03T01:41:52.160Z,1.60
2023-04-03T01:47:01.639Z,1.60
2023-04-03T01:52:05.487Z,1.95
2023-04-03T01:57:07.799Z,2.08
2023-04-03T02:02:10.640Z,1.90
2023-04-03T02:07:12.965Z,1.70
2023-04-03T02:12:15.022Z,1.90
2023-04-03T02:17:17.156Z,1.70
2023-04-03T02:22:19.445Z,2.13
2023-04-03T02:27:21.675Z,1.90
2023-04-03T02:32:24.850Z,1.70
2023-04-03T02:37:27.078Z,2.10
2023-04-03T02:42:30.338Z,1.60
2023-04-03T02:47:32.520Z,1.73
2023-04-03T02:52:35.894Z,1.90
2023-04-03T02:57:38.216Z,1.67
2023-04-03T03:02:40.810Z,1.48
2023-04-03T03:07:42.948Z,1.85
2023-04-03T03:12:45.031Z,1.40
2023-04-03T03:17:47.189Z,1.45
2023-04-03T03:22:49.300Z,1.60
2023-04-03T03:27:51.416Z,1.35
2023-04-03T03:32:53.840Z,1.30
2023-04-03T03:37:56.277Z,1.20
2023-04-03T03:42:58.837Z,1.20
2023-04-03T03:48:02.015Z,1.52
2023-04-03T03:53:04.572Z,1.10
2023-04-03T03:58:06.816Z,1.42
2023-04-03T04:03:10.322Z,1.90
2023-04-03T04:08:12.560Z,1.50
2023-04-03T04:13:15.512Z,1.42
2023-04-03T04:18:18.959Z,1.63
2023-04-03T04:23:23.628Z,1.33
2023-04-03T04:28:26.816Z,1.73
2023-04-03T04:33:31.153Z,1.45
2023-04-03T04:38:36.581Z,1.73
2023-04-03T04:43:39.183Z,1.75
2023-04-03T04:48:41.908Z,1.70
2023-04-03T04:53:45.241Z,1.65
2023-04-03T04:58:50.486Z,1.40
2023-04-03T05:03:55.470Z,1.73
2023-04-03T05:09:00.856Z,1.52
2023-04-03T05:14:06.326Z,1.67
2023-04-03T05:19:09.587Z,2.13
2023-04-03T05:24:13.144Z,1.63
2023-04-03T05:29:18.427Z,1.73
2023-04-03T05:34:22.112Z,1.83
2023-04-03T05:39:27.310Z,1.92
2023-04-03T05:44:29.935Z,2.08
2023-04-03T05:49:32.772Z,1.83
2023-04-03T05:54:35.327Z,2.22
2023-04-03T05:59:50.894Z,2.03
2023-04-03T06:04:53.949Z,2.40
2023-04-03T06:09:57.622Z,2.30
2023-04-03T06:14:59.970Z,2.30
2023-04-03T06:20:02.278Z,2.40
2023-04-03T06:25:05.890Z,2.63
2023-04-03T06:30:08.829Z,2.00
2023-04-03T06:35:11.730Z,2.30
2023-04-03T06:40:21.871Z,2.17
2023-04-03T06:45:25.785Z,1.90
2023-04-03T06:50:27.936Z,1.70
2023-04-03T06:55:30.103Z,2.15
2023-04-03T07:00:32.357Z,2.78
2023-04-03T07:05:34.442Z,2.55
2023-04-03T07:10:37.037Z,2.42
2023-04-03T07:15:39.347Z,2.45
2023-04-03T07:20:42.511Z,3.15
2023-04-03T07:25:49.788Z,3.60
2023-04-03T07:31:04.628Z,3.67
2023-04-03T07:36:08.442Z,3.13
2023-04-03T07:41:16.354Z,2.55
2023-04-03T07:46:18.756Z,1.92
2023-04-03T07:51:21.376Z,2.53
2023-04-03T07:56:23.955Z,2.13
2023-04-03T08:01:26.154Z,2.17
2023-04-03T08:06:44.817Z,1.88
2023-04-03T08:11:48.358Z,2.13
2023-04-03T08:16:51.018Z,1.80
2023-04-03T08:21:53.896Z,1.95
2023-04-03T08:26:56.541Z,1.85
2023-04-03T08:31:58.819Z,1.75
2023-04-03T08:37:01.153Z,2.40
2023-04-03T08:42:14.536Z,1.67
2023-04-03T08:47:27.243Z,1.75
2023-04-03T08:52:56.106Z,1.45
2023-04-03T08:58:11.540Z,1.67
2023-04-03T09:03:16.033Z,1.55
2023-04-03T09:08:24.156Z,1.27
2023-04-03T09:13:41.200Z,1.58
2023-04-03T09:18:49.258Z,2.13
2023-04-03T09:23:55.925Z,2.30
2023-04-03T09:29:01.851Z,1.80
2023-04-03T09:39:29.468Z,1.23
2023-04-03T09:44:38.041Z,1.25
2023-04-03T09:49:40.365Z,1.58
2023-04-03T09:54:42.550Z,1.98
2023-04-03T10:00:06.783Z,2.47
2023-04-03T10:05:33.206Z,2.58
2023-04-03T10:16:02.733Z,2.63
2023-04-03T10:21:17.539Z,2.10
2023-04-03T10:26:46.319Z,2.17
2023-04-03T10:32:17.750Z,2.30
2023-04-03T10:37:27.071Z,2.70
2023-04-03T10:43:01.307Z,1.60
2023-04-03T10:48:15.817Z,2.65
2023-04-03T10:53:40.636Z,2.00
2023-04-03T10:59:15.316Z,2.15
2023-04-03T11:04:22.142Z,2.40
2023-04-03T11:09:39.432Z,2.50
2023-04-03T11:14:42.057Z,1.98
2023-04-03T11:20:10.706Z,2.60
2023-04-03T11:25:12.745Z,2.20
2023-04-03T11:30:22.300Z,2.40
2023-04-03T11:35:26.038Z,2.60
2023-04-03T11:40:34.465Z,2.88
2023-04-03T11:45:51.936Z,3.50
2023-04-03T11:50:54.499Z,3.63
2023-04-03T11:55:59.866Z,2.95
2023-04-03T12:01:10.323Z,3.45
2023-04-03T12:06:14.684Z,4.20
2023-04-03T12:11:27.959Z,4.90
2023-04-03T12:16:50.444Z,4.75
2023-04-03T12:21:59.477Z,3.85
2023-04-03T12:27:01.596Z,4.03
2023-04-03T12:32:44.088Z,4.82
2023-04-03T12:38:00.383Z,5.80
2023-04-03T12:43:40.138Z,5.20
2023-04-03T12:48:58.627Z,5.20
2023-04-03T12:54:14.137Z,6.30
2023-04-03T12:59:27.716Z,7.45
2023-04-03T13:04:32.092Z,7.93
2023-04-03T13:09:34.298Z,7.63
2023-04-03T13:14:37.489Z,8.77
2023-04-03T13:19:40.668Z,8.77
2023-04-03T13:24:44.277Z,8.57
2023-04-03T13:29:52.332Z,9.50
2023-04-03T13:34:55.093Z,5.72
2023-04-03T13:40:13.958Z,6.82
2023-04-03T13:45:24.934Z,7.82
2023-04-03T13:50:29.572Z,7.78
2023-04-03T13:55:56.722Z,11.70
2023-04-03T14:01:09.823Z,8.75
2023-04-03T14:06:15.264Z,10.15
2023-04-03T14:11:24.731Z,10.45
2023-04-03T14:16:30.911Z,8.27
2023-04-03T14:21:33.467Z,9.63
2023-04-03T14:26:35.831Z,9.88
2023-04-03T14:31:38.121Z,9.77
2023-04-03T14:36:42.300Z,9.68
2023-04-03T14:41:46.172Z,11.65
2023-04-03T14:46:56.278Z,10.30
2023-04-03T14:51:59.467Z,8.57
2023-04-03T14:57:02.507Z,8.02
2023-04-03T15:02:22.647Z,9.00
2023-04-03T15:07:26.517Z,9.98
2023-04-03T15:12:28.665Z,9.65
2023-04-03T15:17:31.180Z,9.52
2023-04-03T15:22:33.269Z,10.80
2023-04-03T15:27:35.843Z,10.63
2023-04-03T15:32:37.915Z,11.25
2023-04-03T15:37:40.216Z,9.32
2023-04-03T15:42:42.321Z,10.30
2023-04-03T15:47:44.571Z,9.75
2023-04-03T15:52:46.836Z,11.57
2023-04-03T15:57:48.897Z,11.65
2023-04-03T16:03:05.744Z,11.38
2023-04-03T16:08:08.940Z,13.18
2023-04-03T16:13:11.426Z,11.25
2023-04-03T16:18:14.952Z,10.43
2023-04-03T16:28:20.689Z,11.77
2023-04-03T16:33:23.082Z,11.43
2023-04-03T16:38:25.340Z,11.65
2023-04-03T16:43:28.107Z,10.75
2023-04-03T16:48:32.220Z,10.10
2023-04-03T16:53:34.786Z,11.00
2023-04-03T16:58:37.304Z,10.35
2023-04-03T17:03:40.071Z,10.32
2023-04-03T17:08:42.711Z,10.70
2023-04-03T17:13:44.946Z,9.90
2023-04-03T17:18:48.540Z,9.35
2023-04-03T17:23:55.414Z,8.95
2023-04-03T17:28:57.837Z,9.13
2023-04-03T17:34:01.855Z,9.55
2023-04-03T17:39:04.228Z,9.48
2023-04-03T17:44:06.731Z,9.13
2023-04-03T17:49:10.696Z,9.65
2023-04-03T17:54:13.581Z,9.32
2023-04-03T17:59:17.222Z,9.48
2023-04-03T18:04:19.411Z,9.52
2023-04-03T18:09:25.544Z,7.88
2023-04-03T18:14:28.463Z,8.40
2023-04-03T18:19:30.809Z,8.50
2023-04-03T18:24:34.620Z,9.98
2023-04-03T18:29:38.252Z,8.00
2023-04-03T18:34:40.609Z,7.97
2023-04-03T18:39:42.884Z,6.47
2023-04-03T18:44:47.814Z,6.28
2023-04-03T18:49:50.720Z,6.70
2023-04-03T18:54:53.711Z,5.90
2023-04-03T18:59:55.814Z,4.82
2023-04-03T19:04:58.038Z,6.22
2023-04-03T19:10:01.104Z,5.35
2023-04-03T19:15:03.970Z,5.20
2023-04-03T19:20:07.162Z,5.65
2023-04-03T19:25:11.217Z,4.80
2023-04-03T19:30:14.063Z,6.35
2023-04-03T19:35:16.218Z,6.72
2023-04-03T19:40:18.936Z,5.80
2023-04-03T19:45:21.966Z,5.25
2023-04-03T19:50:24.282Z,7.40
2023-04-03T19:55:31.079Z,6.00
2023-04-03T20:00:33.370Z,5.38
2023-04-03T20:05:35.438Z,4.40
2023-04-03T20:10:40.568Z,5.32
2023-04-03T20:15:43.887Z,4.57
2023-04-03T20:20:56.570Z,6.75
2023-04-03T20:26:09.212Z,6.53
2023-04-03T20:31:13.720Z,6.20
2023-04-03T20:36:17.377Z,4.57
2023-04-03T20:41:20.680Z,5.05
2023-04-03T20:46:34.958Z,4.20
2023-04-03T20:51:45.355Z,4.90
2023-04-03T20:56:50.017Z,4.88
2023-04-03T21:01:52.620Z,4.88
2023-04-03T21:07:32.789Z,4.40
2023-04-03T21:13:12.421Z,3.55
2023-04-03T21:18:36.896Z,3.60
2023-04-03T21:23:39.004Z,4.10
2023-04-03T21:28:42.726Z,4.03
2023-04-03T21:33:45.207Z,3.50
2023-04-03T21:38:48.210Z,3.55
2023-04-03T21:43:50.327Z,4.10
2023-04-03T21:48:52.461Z,4.05
2023-04-03T21:53:55.351Z,3.63
2023-04-03T21:58:58.675Z,3.90
2023-04-03T22:04:01.896Z,3.75
2023-04-03T22:09:04.171Z,3.67
2023-04-03T22:14:06.260Z,5.90
2023-04-03T22:19:08.343Z,5.25
2023-04-03T22:24:10.400Z,5.25
2023-04-03T22:29:16.746Z,4.75
2023-04-03T22:34:19.825Z,4.40
2023-04-03T22:39:22.323Z,3.90
2023-04-03T22:44:25.772Z,4.25
2023-04-03T22:49:29.657Z,3.87
2023-04-03T22:54:31.694Z,4.03
2023-04-03T22:59:33.762Z,4.20
2023-04-03T23:04:36.447Z,4.95
2023-04-03T23:09:38.552Z,5.13
2023-04-03T23:14:40.628Z,4.90
2023-04-03T23:19:42.743Z,5.22
2023-04-03T23:24:45.532Z,4.72
2023-04-03T23:29:47.696Z,4.22
2023-04-03T23:34:49.837Z,4.72
2023-04-03T23:39:51.926Z,4.70
2023-04-03T23:44:53.990Z,4.40
2023-04-03T23:49:56.191Z,4.97
2023-04-03T23:54:58.732Z,5.30
